sensor_id;sensor_type;location;lat;lon;timestamp;P1;durP1;ratioP1;P2;durP2;ratioP2
48881;SDS011;57063;51.406;-2.402;2023-12-29T00:00:37;29.60;;;4.43;;
48881;SDS011;57063;51.406;-2.402;2023-12-29T00:03:02;28.23;;;4.68;;
48881;SDS011;57063;51.406;-2.402;2023-12-29T00:05:28;29.73;;;3.97;;
48881;SDS011;57063;51.406;-2.402;2023-12-29T00:07:53;29.02;;;6.75;;
48881;SDS011;57063;51.406;-2.402;2023-12-29T00:10:18;32.70;;;4.60;;
48881;SDS011;57063;51.406;-2.402;2023-12-29T00:12:44;27.42;;;3.97;;
48881;SDS011;57063;51.406;-2.402;2023-12-29T00:15:09;23.20;;;5.28;;
48881;SDS011;57063;51.406;-2.402;2023-12-29T00:17:35;23.83;;;5.10;;
48881;SDS011;57063;51.406;-2.402;2023-12-29T00:20:05;26.58;;;5.03;;
48881;SDS011;57063;51.406;-2.402;2023-12-29T00:22:33;27.38;;;4.43;;
48881;SDS011;57063;51.406;-2.402;2023-12-29T00:24:59;23.65;;;3.30;;
48881;SDS011;57063;51.406;-2.402;2023-12-29T00:27:24;23.08;;;2.58;;
48881;SDS011;57063;51.406;-2.402;2023-12-29T00:29:50;22.67;;;3.25;;
48881;SDS011;57063;51.406;-2.402;2023-12-29T00:32:15;26.77;;;3.75;;
48881;SDS011;57063;51.406;-2.402;2023-12-29T00:34:40;34.03;;;4.72;;
48881;SDS011;57063;51.406;-2.402;2023-12-29T00:37:06;26.30;;;4.10;;
48881;SDS011;57063;51.406;-2.402;2023-12-29T00:39:31;25.77;;;3.47;;
48881;SDS011;57063;51.406;-2.402;2023-12-29T00:42:03;30.23;;;4.25;;
48881;SDS011;57063;51.406;-2.402;2023-12-29T00:44:29;29.55;;;4.95;;
48881;SDS011;57063;51.406;-2.402;2023-12-29T00:46:55;31.73;;;5.45;;
48881;SDS011;57063;51.406;-2.402;2023-12-29T00:49:20;39.78;;;5.97;;
48881;SDS011;57063;51.406;-2.402;2023-12-29T00:51:46;34.78;;;4.07;;
48881;SDS011;57063;51.406;-2.402;2023-12-29T00:54:12;26.02;;;4.13;;
48881;SDS011;57063;51.406;-2.402;2023-12-29T00:56:37;29.95;;;4.10;;
48881;SDS011;57063;51.406;-2.402;2023-12-29T00:59:03;37.38;;;4.80;;
48881;SDS011;57063;51.406;-2.402;2023-12-29T01:01:28;29.10;;;4.28;;
48881;SDS011;57063;51.406;-2.402;2023-12-29T01:03:59;40.22;;;4.18;;
48881;SDS011;57063;51.406;-2.402;2023-12-29T01:06:24;27.73;;;4.95;;
48881;SDS011;57063;51.406;-2.402;2023-12-29T01:08:49;25.95;;;4.07;;
48881;SDS011;57063;51.406;-2.402;2023-12-29T01:11:15;28.02;;;4.68;;
48881;SDS011;57063;51.406;-2.402;2023-12-29T01:13:40;22.63;;;2.95;;
48881;SDS011;57063;51.406;-2.402;2023-12-29T01:16:05;29.13;;;4.90;;
48881;SDS011;57063;51.406;-2.402;2023-12-29T01:18:31;27.98;;;3.65;;
48881;SDS011;57063;51.406;-2.402;2023-12-29T01:20:57;32.10;;;6.10;;
48881;SDS011;57063;51.406;-2.402;2023-12-29T01:23:22;35.50;;;8.40;;
48881;SDS011;57063;51.406;-2.402;2023-12-29T01:25:47;27.33;;;3.97;;
48881;SDS011;57063;51.406;-2.402;2023-12-29T01:28:13;32.78;;;4.55;;
48881;SDS011;57063;51.406;-2.402;2023-12-29T01:30:38;29.73;;;4.40;;
48881;SDS011;57063;51.406;-2.402;2023-12-29T01:33:03;40.63;;;6.32;;
48881;SDS011;57063;51.406;-2.402;2023-12-29T01:35:29;29.38;;;4.00;;
48881;SDS011;57063;51.406;-2.402;2023-12-29T01:37:54;26.00;;;3.83;;
48881;SDS011;57063;51.406;-2.402;2023-12-29T01:40:22;37.70;;;5.93;;
48881;SDS011;57063;51.406;-2.402;2023-12-29T01:42:48;25.77;;;4.43;;
48881;SDS011;57063;51.406;-2.402;2023-12-29T01:45:20;38.00;;;4.63;;
48881;SDS011;57063;51.406;-2.402;2023-12-29T01:47:51;23.65;;;3.50;;
48881;SDS011;57063;51.406;-2.402;2023-12-29T01:50:17;27.73;;;6.82;;
48881;SDS011;57063;51.406;-2.402;2023-12-29T01:52:44;39.17;;;3.90;;
48881;SDS011;57063;51.406;-2.402;2023-12-29T01:55:12;33.72;;;5.13;;
48881;SDS011;57063;51.406;-2.402;2023-12-29T01:57:42;25.55;;;3.75;;
48881;SDS011;57063;51.406;-2.402;2023-12-29T02:00:08;28.27;;;4.45;;
48881;SDS011;57063;51.406;-2.402;2023-12-29T02:02:34;22.80;;;4.97;;
48881;SDS011;57063;51.406;-2.402;2023-12-29T02:04:59;23.75;;;4.03;;
48881;SDS011;57063;51.406;-2.402;2023-12-29T02:07:26;23.45;;;3.90;;
48881;SDS011;57063;51.406;-2.402;2023-12-29T02:09:55;25.13;;;4.15;;
48881;SDS011;57063;51.406;-2.402;2023-12-29T02:12:22;20.77;;;3.10;;
48881;SDS011;57063;51.406;-2.402;2023-12-29T02:14:48;21.88;;;3.35;;
48881;SDS011;57063;51.406;-2.402;2023-12-29T02:17:25;23.27;;;3.35;;
48881;SDS011;57063;51.406;-2.402;2023-12-29T02:19:52;25.65;;;3.80;;
48881;SDS011;57063;51.406;-2.402;2023-12-29T02:22:18;13.63;;;2.65;;
48881;SDS011;57063;51.406;-2.402;2023-12-29T02:24:47;18.92;;;2.30;;
48881;SDS011;57063;51.406;-2.402;2023-12-29T02:29:45;9.98;;;1.67;;
48881;SDS011;57063;51.406;-2.402;2023-12-29T02:34:43;13.00;;;2.00;;
48881;SDS011;57063;51.406;-2.402;2023-12-29T02:37:12;20.58;;;3.00;;
48881;SDS011;57063;51.406;-2.402;2023-12-29T02:39:38;25.25;;;2.50;;
48881;SDS011;57063;51.406;-2.402;2023-12-29T02:42:04;11.10;;;1.60;;
48881;SDS011;57063;51.406;-2.402;2023-12-29T02:44:29;16.58;;;2.05;;
48881;SDS011;57063;51.406;-2.402;2023-12-29T02:46:54;11.38;;;2.40;;
48881;SDS011;57063;51.406;-2.402;2023-12-29T02:49:20;26.00;;;2.80;;
48881;SDS011;57063;51.406;-2.402;2023-12-29T02:51:46;17.48;;;2.30;;
48881;SDS011;57063;51.406;-2.402;2023-12-29T02:54:13;7.32;;;1.42;;
48881;SDS011;57063;51.406;-2.402;2023-12-29T02:56:38;10.50;;;1.63;;
48881;SDS011;57063;51.406;-2.402;2023-12-29T02:59:03;12.52;;;2.38;;
48881;SDS011;57063;51.406;-2.402;2023-12-29T03:01:29;11.98;;;2.20;;
48881;SDS011;57063;51.406;-2.402;2023-12-29T03:03:54;13.85;;;1.50;;
48881;SDS011;57063;51.406;-2.402;2023-12-29T03:06:20;14.63;;;1.83;;
48881;SDS011;57063;51.406;-2.402;2023-12-29T03:08:45;19.88;;;5.00;;
48881;SDS011;57063;51.406;-2.402;2023-12-29T03:11:10;14.02;;;2.33;;
48881;SDS011;57063;51.406;-2.402;2023-12-29T03:13:36;16.60;;;2.25;;
48881;SDS011;57063;51.406;-2.402;2023-12-29T03:16:01;15.68;;;3.10;;
48881;SDS011;57063;51.406;-2.402;2023-12-29T03:18:26;23.02;;;3.83;;
48881;SDS011;57063;51.406;-2.402;2023-12-29T03:20:52;20.33;;;2.45;;
48881;SDS011;57063;51.406;-2.402;2023-12-29T03:23:17;20.00;;;2.90;;
48881;SDS011;57063;51.406;-2.402;2023-12-29T03:25:42;19.80;;;1.92;;
48881;SDS011;57063;51.406;-2.402;2023-12-29T03:28:08;22.08;;;2.80;;
48881;SDS011;57063;51.406;-2.402;2023-12-29T03:30:33;18.45;;;2.42;;
48881;SDS011;57063;51.406;-2.402;2023-12-29T03:32:58;28.92;;;4.10;;
48881;SDS011;57063;51.406;-2.402;2023-12-29T03:35:24;17.10;;;2.78;;
48881;SDS011;57063;51.406;-2.402;2023-12-29T03:37:49;19.92;;;3.45;;
48881;SDS011;57063;51.406;-2.402;2023-12-29T03:40:14;20.45;;;2.70;;
48881;SDS011;57063;51.406;-2.402;2023-12-29T03:42:40;19.98;;;3.50;;
48881;SDS011;57063;51.406;-2.402;2023-12-29T03:45:06;22.67;;;2.80;;
48881;SDS011;57063;51.406;-2.402;2023-12-29T03:47:32;19.48;;;2.15;;
48881;SDS011;57063;51.406;-2.402;2023-12-29T03:49:57;18.83;;;2.28;;
48881;SDS011;57063;51.406;-2.402;2023-12-29T03:52:23;19.08;;;2.78;;
48881;SDS011;57063;51.406;-2.402;2023-12-29T03:54:48;17.30;;;2.30;;
48881;SDS011;57063;51.406;-2.402;2023-12-29T03:57:13;19.65;;;3.13;;
48881;SDS011;57063;51.406;-2.402;2023-12-29T03:59:39;20.02;;;3.47;;
48881;SDS011;57063;51.406;-2.402;2023-12-29T04:02:04;17.00;;;2.17;;
48881;SDS011;57063;51.406;-2.402;2023-12-29T04:04:29;19.27;;;2.58;;
48881;SDS011;57063;51.406;-2.402;2023-12-29T04:06:55;9.77;;;1.90;;
48881;SDS011;57063;51.406;-2.402;2023-12-29T04:09:20;16.13;;;2.05;;
48881;SDS011;57063;51.406;-2.402;2023-12-29T04:11:46;14.38;;;2.50;;
48881;SDS011;57063;51.406;-2.402;2023-12-29T04:14:11;14.52;;;1.77;;
48881;SDS011;57063;51.406;-2.402;2023-12-29T04:16:38;11.25;;;1.73;;
48881;SDS011;57063;51.406;-2.402;2023-12-29T04:19:03;15.63;;;2.63;;
48881;SDS011;57063;51.406;-2.402;2023-12-29T04:21:29;14.93;;;3.10;;
48881;SDS011;57063;51.406;-2.402;2023-12-29T04:23:54;24.02;;;2.72;;
48881;SDS011;57063;51.406;-2.402;2023-12-29T04:26:19;17.73;;;3.55;;
48881;SDS011;57063;51.406;-2.402;2023-12-29T04:28:45;18.67;;;3.03;;
48881;SDS011;57063;51.406;-2.402;2023-12-29T04:31:10;15.45;;;2.22;;
48881;SDS011;57063;51.406;-2.402;2023-12-29T04:33:35;19.90;;;2.42;;
48881;SDS011;57063;51.406;-2.402;2023-12-29T04:36:01;18.85;;;2.58;;
48881;SDS011;57063;51.406;-2.402;2023-12-29T04:38:26;25.27;;;2.65;;
48881;SDS011;57063;51.406;-2.402;2023-12-29T04:40:51;20.52;;;2.85;;
48881;SDS011;57063;51.406;-2.402;2023-12-29T04:43:17;14.38;;;2.85;;
48881;SDS011;57063;51.406;-2.402;2023-12-29T04:45:42;13.80;;;2.65;;
48881;SDS011;57063;51.406;-2.402;2023-12-29T04:48:07;16.00;;;2.20;;
48881;SDS011;57063;51.406;-2.402;2023-12-29T04:50:33;19.13;;;2.53;;
48881;SDS011;57063;51.406;-2.402;2023-12-29T04:52:58;16.63;;;2.28;;
48881;SDS011;57063;51.406;-2.402;2023-12-29T04:55:24;18.83;;;2.40;;
48881;SDS011;57063;51.406;-2.402;2023-12-29T04:57:49;8.50;;;1.48;;
48881;SDS011;57063;51.406;-2.402;2023-12-29T05:00:15;18.08;;;1.80;;
48881;SDS011;57063;51.406;-2.402;2023-12-29T05:02:40;11.93;;;1.85;;
48881;SDS011;57063;51.406;-2.402;2023-12-29T05:05:05;16.50;;;2.70;;
48881;SDS011;57063;51.406;-2.402;2023-12-29T05:07:31;13.15;;;1.90;;
48881;SDS011;57063;51.406;-2.402;2023-12-29T05:09:56;14.25;;;2.33;;
48881;SDS011;57063;51.406;-2.402;2023-12-29T05:12:21;13.40;;;2.03;;
48881;SDS011;57063;51.406;-2.402;2023-12-29T05:14:47;15.30;;;1.90;;
48881;SDS011;57063;51.406;-2.402;2023-12-29T05:17:12;16.90;;;2.17;;
48881;SDS011;57063;51.406;-2.402;2023-12-29T05:19:38;10.55;;;1.63;;
48881;SDS011;57063;51.406;-2.402;2023-12-29T05:22:03;10.45;;;1.73;;
48881;SDS011;57063;51.406;-2.402;2023-12-29T05:24:28;15.13;;;2.10;;
48881;SDS011;57063;51.406;-2.402;2023-12-29T05:26:54;14.90;;;2.50;;
48881;SDS011;57063;51.406;-2.402;2023-12-29T05:29:19;14.70;;;1.85;;
48881;SDS011;57063;51.406;-2.402;2023-12-29T05:31:44;11.60;;;1.63;;
48881;SDS011;57063;51.406;-2.402;2023-12-29T05:34:10;7.15;;;1.27;;
48881;SDS011;57063;51.406;-2.402;2023-12-29T05:36:35;23.67;;;2.50;;
48881;SDS011;57063;51.406;-2.402;2023-12-29T05:39:01;15.18;;;2.00;;
48881;SDS011;57063;51.406;-2.402;2023-12-29T05:41:27;11.82;;;1.60;;
48881;SDS011;57063;51.406;-2.402;2023-12-29T05:43:52;16.42;;;1.75;;
48881;SDS011;57063;51.406;-2.402;2023-12-29T05:46:18;17.08;;;1.85;;
48881;SDS011;57063;51.406;-2.402;2023-12-29T05:48:43;18.08;;;2.33;;
48881;SDS011;57063;51.406;-2.402;2023-12-29T05:51:13;20.20;;;2.88;;
48881;SDS011;57063;51.406;-2.402;2023-12-29T05:53:42;18.48;;;2.15;;
48881;SDS011;57063;51.406;-2.402;2023-12-29T05:56:10;20.20;;;2.83;;
48881;SDS011;57063;51.406;-2.402;2023-12-29T05:58:37;17.65;;;1.77;;
48881;SDS011;57063;51.406;-2.402;2023-12-29T06:01:02;14.85;;;2.20;;
48881;SDS011;57063;51.406;-2.402;2023-12-29T06:03:28;15.30;;;1.92;;
48881;SDS011;57063;51.406;-2.402;2023-12-29T06:05:53;16.80;;;2.30;;
48881;SDS011;57063;51.406;-2.402;2023-12-29T06:08:19;17.20;;;2.50;;
48881;SDS011;57063;51.406;-2.402;2023-12-29T06:10:45;14.13;;;1.73;;
48881;SDS011;57063;51.406;-2.402;2023-12-29T06:13:10;22.35;;;3.00;;
48881;SDS011;57063;51.406;-2.402;2023-12-29T06:15:35;16.75;;;2.58;;
48881;SDS011;57063;51.406;-2.402;2023-12-29T06:18:01;15.25;;;2.15;;
48881;SDS011;57063;51.406;-2.402;2023-12-29T06:20:27;17.20;;;2.30;;
48881;SDS011;57063;51.406;-2.402;2023-12-29T06:22:52;16.58;;;2.10;;
48881;SDS011;57063;51.406;-2.402;2023-12-29T06:25:18;22.02;;;2.08;;
48881;SDS011;57063;51.406;-2.402;2023-12-29T06:27:43;16.83;;;1.75;;
48881;SDS011;57063;51.406;-2.402;2023-12-29T06:30:09;13.18;;;1.60;;
48881;SDS011;57063;51.406;-2.402;2023-12-29T06:32:36;11.73;;;2.35;;
48881;SDS011;57063;51.406;-2.402;2023-12-29T06:35:01;11.18;;;1.48;;
48881;SDS011;57063;51.406;-2.402;2023-12-29T06:37:27;14.65;;;2.13;;
48881;SDS011;57063;51.406;-2.402;2023-12-29T06:39:53;21.88;;;3.55;;
48881;SDS011;57063;51.406;-2.402;2023-12-29T06:42:18;15.20;;;2.22;;
48881;SDS011;57063;51.406;-2.402;2023-12-29T06:44:44;20.08;;;1.55;;
48881;SDS011;57063;51.406;-2.402;2023-12-29T06:47:09;13.50;;;2.20;;
48881;SDS011;57063;51.406;-2.402;2023-12-29T06:49:36;19.92;;;2.45;;
48881;SDS011;57063;51.406;-2.402;2023-12-29T06:52:01;11.98;;;2.00;;
48881;SDS011;57063;51.406;-2.402;2023-12-29T06:54:27;20.27;;;2.72;;
48881;SDS011;57063;51.406;-2.402;2023-12-29T06:56:53;17.67;;;2.05;;
48881;SDS011;57063;51.406;-2.402;2023-12-29T06:59:18;19.73;;;2.55;;
48881;SDS011;57063;51.406;-2.402;2023-12-29T07:01:45;15.65;;;2.22;;
48881;SDS011;57063;51.406;-2.402;2023-12-29T07:04:10;15.93;;;2.70;;
48881;SDS011;57063;51.406;-2.402;2023-12-29T07:06:36;19.08;;;2.83;;
48881;SDS011;57063;51.406;-2.402;2023-12-29T07:09:02;12.60;;;1.95;;
48881;SDS011;57063;51.406;-2.402;2023-12-29T07:11:28;18.05;;;1.90;;
48881;SDS011;57063;51.406;-2.402;2023-12-29T07:13:53;18.27;;;3.75;;
48881;SDS011;57063;51.406;-2.402;2023-12-29T07:16:19;15.73;;;2.45;;
48881;SDS011;57063;51.406;-2.402;2023-12-29T07:18:45;19.90;;;2.88;;
48881;SDS011;57063;51.406;-2.402;2023-12-29T07:21:11;14.52;;;1.98;;
48881;SDS011;57063;51.406;-2.402;2023-12-29T07:23:37;19.38;;;2.03;;
48881;SDS011;57063;51.406;-2.402;2023-12-29T07:26:03;15.25;;;1.77;;
48881;SDS011;57063;51.406;-2.402;2023-12-29T07:28:28;13.45;;;1.65;;
48881;SDS011;57063;51.406;-2.402;2023-12-29T07:30:54;6.32;;;1.10;;
48881;SDS011;57063;51.406;-2.402;2023-12-29T07:33:19;7.45;;;0.90;;
48881;SDS011;57063;51.406;-2.402;2023-12-29T07:35:45;14.60;;;1.50;;
48881;SDS011;57063;51.406;-2.402;2023-12-29T07:38:10;15.23;;;1.52;;
48881;SDS011;57063;51.406;-2.402;2023-12-29T07:40:35;8.02;;;1.00;;
48881;SDS011;57063;51.406;-2.402;2023-12-29T07:43:01;13.77;;;1.55;;
48881;SDS011;57063;51.406;-2.402;2023-12-29T07:45:26;12.82;;;2.38;;
48881;SDS011;57063;51.406;-2.402;2023-12-29T07:47:52;17.42;;;2.28;;
48881;SDS011;57063;51.406;-2.402;2023-12-29T07:50:17;8.57;;;2.05;;
48881;SDS011;57063;51.406;-2.402;2023-12-29T07:52:43;14.95;;;2.15;;
48881;SDS011;57063;51.406;-2.402;2023-12-29T07:55:09;8.45;;;1.40;;
48881;SDS011;57063;51.406;-2.402;2023-12-29T07:57:34;14.27;;;1.58;;
48881;SDS011;57063;51.406;-2.402;2023-12-29T08:00:00;12.68;;;1.80;;
48881;SDS011;57063;51.406;-2.402;2023-12-29T08:02:26;14.98;;;3.20;;
48881;SDS011;57063;51.406;-2.402;2023-12-29T08:04:52;14.10;;;1.85;;
48881;SDS011;57063;51.406;-2.402;2023-12-29T08:07:19;11.13;;;2.15;;
48881;SDS011;57063;51.406;-2.402;2023-12-29T08:09:45;15.00;;;1.55;;
48881;SDS011;57063;51.406;-2.402;2023-12-29T08:12:10;7.00;;;1.08;;
48881;SDS011;57063;51.406;-2.402;2023-12-29T08:14:35;14.35;;;1.70;;
48881;SDS011;57063;51.406;-2.402;2023-12-29T08:17:01;12.05;;;1.73;;
48881;SDS011;57063;51.406;-2.402;2023-12-29T08:19:26;9.48;;;1.27;;
48881;SDS011;57063;51.406;-2.402;2023-12-29T08:21:52;10.82;;;1.25;;
48881;SDS011;57063;51.406;-2.402;2023-12-29T08:24:17;14.70;;;1.77;;
48881;SDS011;57063;51.406;-2.402;2023-12-29T08:26:44;8.77;;;1.23;;
48881;SDS011;57063;51.406;-2.402;2023-12-29T08:29:11;9.57;;;1.45;;
48881;SDS011;57063;51.406;-2.402;2023-12-29T08:31:37;11.90;;;1.35;;
48881;SDS011;57063;51.406;-2.402;2023-12-29T08:34:03;16.88;;;1.58;;
48881;SDS011;57063;51.406;-2.402;2023-12-29T08:36:28;10.43;;;1.35;;
48881;SDS011;57063;51.406;-2.402;2023-12-29T08:38:53;9.10;;;1.58;;
48881;SDS011;57063;51.406;-2.402;2023-12-29T08:41:19;11.07;;;1.63;;
48881;SDS011;57063;51.406;-2.402;2023-12-29T08:43:44;15.07;;;1.77;;
48881;SDS011;57063;51.406;-2.402;2023-12-29T08:46:10;9.18;;;1.40;;
48881;SDS011;57063;51.406;-2.402;2023-12-29T08:48:35;7.55;;;0.90;;
48881;SDS011;57063;51.406;-2.402;2023-12-29T08:51:00;13.25;;;1.23;;
48881;SDS011;57063;51.406;-2.402;2023-12-29T08:53:26;12.15;;;1.48;;
48881;SDS011;57063;51.406;-2.402;2023-12-29T08:55:52;6.13;;;1.08;;
48881;SDS011;57063;51.406;-2.402;2023-12-29T08:58:17;6.15;;;1.15;;
48881;SDS011;57063;51.406;-2.402;2023-12-29T09:00:42;5.97;;;0.85;;
48881;SDS011;57063;51.406;-2.402;2023-12-29T09:03:08;7.10;;;0.90;;
48881;SDS011;57063;51.406;-2.402;2023-12-29T09:05:34;4.25;;;0.70;;
48881;SDS011;57063;51.406;-2.402;2023-12-29T09:07:59;2.65;;;0.45;;
48881;SDS011;57063;51.406;-2.402;2023-12-29T09:10:24;4.72;;;0.90;;
48881;SDS011;57063;51.406;-2.402;2023-12-29T09:12:50;5.57;;;0.93;;
48881;SDS011;57063;51.406;-2.402;2023-12-29T09:15:15;6.38;;;0.75;;
48881;SDS011;57063;51.406;-2.402;2023-12-29T09:17:41;5.65;;;1.13;;
48881;SDS011;57063;51.406;-2.402;2023-12-29T09:20:07;5.22;;;0.40;;
48881;SDS011;57063;51.406;-2.402;2023-12-29T09:22:33;5.30;;;0.95;;
48881;SDS011;57063;51.406;-2.402;2023-12-29T09:24:59;2.28;;;0.30;;
48881;SDS011;57063;51.406;-2.402;2023-12-29T09:27:24;4.57;;;0.68;;
48881;SDS011;57063;51.406;-2.402;2023-12-29T09:29:50;6.25;;;0.70;;
48881;SDS011;57063;51.406;-2.402;2023-12-29T09:32:15;8.68;;;0.70;;
48881;SDS011;57063;51.406;-2.402;2023-12-29T09:34:41;1.55;;;0.50;;
48881;SDS011;57063;51.406;-2.402;2023-12-29T09:37:07;7.55;;;0.50;;
48881;SDS011;57063;51.406;-2.402;2023-12-29T09:39:33;4.75;;;0.70;;
48881;SDS011;57063;51.406;-2.402;2023-12-29T09:41:58;5.05;;;0.40;;
48881;SDS011;57063;51.406;-2.402;2023-12-29T09:44:26;0.70;;;0.15;;
48881;SDS011;57063;51.406;-2.402;2023-12-29T09:46:53;1.95;;;0.55;;
48881;SDS011;57063;51.406;-2.402;2023-12-29T09:49:19;3.20;;;0.30;;
48881;SDS011;57063;51.406;-2.402;2023-12-29T09:51:45;0.90;;;0.10;;
48881;SDS011;57063;51.406;-2.402;2023-12-29T09:54:15;1.33;;;0.20;;
48881;SDS011;57063;51.406;-2.402;2023-12-29T09:56:41;1.45;;;0.13;;
48881;SDS011;57063;51.406;-2.402;2023-12-29T09:59:08;1.27;;;0.20;;
48881;SDS011;57063;51.406;-2.402;2023-12-29T10:01:36;1.40;;;0.20;;
48881;SDS011;57063;51.406;-2.402;2023-12-29T10:04:03;2.72;;;0.28;;
48881;SDS011;57063;51.406;-2.402;2023-12-29T10:06:30;2.00;;;0.30;;
48881;SDS011;57063;51.406;-2.402;2023-12-29T10:08:58;1.98;;;0.43;;
48881;SDS011;57063;51.406;-2.402;2023-12-29T10:11:24;5.00;;;0.95;;
48881;SDS011;57063;51.406;-2.402;2023-12-29T10:13:53;4.28;;;0.70;;
48881;SDS011;57063;51.406;-2.402;2023-12-29T10:16:37;3.47;;;0.70;;
48881;SDS011;57063;51.406;-2.402;2023-12-29T10:19:23;5.47;;;1.48;;
48881;SDS011;57063;51.406;-2.402;2023-12-29T10:21:57;5.25;;;0.77;;
48881;SDS011;57063;51.406;-2.402;2023-12-29T10:24:29;3.58;;;0.68;;
48881;SDS011;57063;51.406;-2.402;2023-12-29T10:26:54;6.68;;;1.42;;
48881;SDS011;57063;51.406;-2.402;2023-12-29T10:29:20;6.82;;;0.80;;
48881;SDS011;57063;51.406;-2.402;2023-12-29T10:31:46;2.67;;;0.60;;
48881;SDS011;57063;51.406;-2.402;2023-12-29T10:34:16;5.95;;;0.75;;
48881;SDS011;57063;51.406;-2.402;2023-12-29T10:36:48;3.58;;;0.93;;
48881;SDS011;57063;51.406;-2.402;2023-12-29T10:39:14;7.78;;;0.75;;
48881;SDS011;57063;51.406;-2.402;2023-12-29T10:41:40;9.85;;;1.10;;
48881;SDS011;57063;51.406;-2.402;2023-12-29T10:44:06;5.95;;;0.73;;
48881;SDS011;57063;51.406;-2.402;2023-12-29T10:46:32;4.28;;;0.93;;
48881;SDS011;57063;51.406;-2.402;2023-12-29T10:49:08;5.57;;;0.80;;
48881;SDS011;57063;51.406;-2.402;2023-12-29T10:51:34;7.00;;;1.10;;
48881;SDS011;57063;51.406;-2.402;2023-12-29T10:54:00;6.07;;;0.80;;
48881;SDS011;57063;51.406;-2.402;2023-12-29T10:56:25;6.60;;;0.95;;
48881;SDS011;57063;51.406;-2.402;2023-12-29T11:01:28;3.08;;;0.52;;
48881;SDS011;57063;51.406;-2.402;2023-12-29T11:04:04;4.07;;;0.70;;
48881;SDS011;57063;51.406;-2.402;2023-12-29T11:06:40;6.18;;;0.90;;
48881;SDS011;57063;51.406;-2.402;2023-12-29T11:09:09;4.88;;;0.50;;
48881;SDS011;57063;51.406;-2.402;2023-12-29T11:11:36;3.72;;;0.70;;
48881;SDS011;57063;51.406;-2.402;2023-12-29T11:14:02;3.83;;;0.80;;
48881;SDS011;57063;51.406;-2.402;2023-12-29T11:16:29;1.85;;;0.52;;
48881;SDS011;57063;51.406;-2.402;2023-12-29T11:18:56;4.57;;;1.00;;
48881;SDS011;57063;51.406;-2.402;2023-12-29T11:21:24;3.72;;;0.47;;
48881;SDS011;57063;51.406;-2.402;2023-12-29T11:23:51;5.20;;;0.63;;
48881;SDS011;57063;51.406;-2.402;2023-12-29T11:26:17;4.07;;;0.40;;
48881;SDS011;57063;51.406;-2.402;2023-12-29T11:28:45;2.88;;;0.40;;
48881;SDS011;57063;51.406;-2.402;2023-12-29T11:31:13;6.35;;;0.77;;
48881;SDS011;57063;51.406;-2.402;2023-12-29T11:33:41;2.50;;;0.40;;
48881;SDS011;57063;51.406;-2.402;2023-12-29T11:44:24;3.35;;;0.50;;
48881;SDS011;57063;51.406;-2.402;2023-12-29T11:46:51;2.40;;;0.35;;
48881;SDS011;57063;51.406;-2.402;2023-12-29T11:49:17;4.00;;;0.85;;
48881;SDS011;57063;51.406;-2.402;2023-12-29T11:51:43;3.22;;;0.47;;
48881;SDS011;57063;51.406;-2.402;2023-12-29T11:54:26;5.82;;;0.40;;
48881;SDS011;57063;51.406;-2.402;2023-12-29T11:56:52;6.05;;;0.43;;
48881;SDS011;57063;51.406;-2.402;2023-12-29T11:59:25;5.38;;;1.00;;
48881;SDS011;57063;51.406;-2.402;2023-12-29T12:01:53;4.53;;;0.50;;
48881;SDS011;57063;51.406;-2.402;2023-12-29T12:04:34;1.95;;;0.40;;
48881;SDS011;57063;51.406;-2.402;2023-12-29T12:07:02;5.95;;;0.47;;
48881;SDS011;57063;51.406;-2.402;2023-12-29T12:09:28;4.90;;;0.70;;
48881;SDS011;57063;51.406;-2.402;2023-12-29T12:11:53;1.85;;;0.32;;
48881;SDS011;57063;51.406;-2.402;2023-12-29T12:17:32;3.78;;;0.50;;
48881;SDS011;57063;51.406;-2.402;2023-12-29T12:20:06;2.65;;;0.32;;
48881;SDS011;57063;51.406;-2.402;2023-12-29T12:22:36;7.47;;;0.70;;
48881;SDS011;57063;51.406;-2.402;2023-12-29T12:25:02;5.50;;;0.82;;
48881;SDS011;57063;51.406;-2.402;2023-12-29T12:27:28;5.90;;;0.35;;
48881;SDS011;57063;51.406;-2.402;2023-12-29T12:29:57;5.80;;;0.70;;
48881;SDS011;57063;51.406;-2.402;2023-12-29T12:32:28;9.75;;;2.00;;
48881;SDS011;57063;51.406;-2.402;2023-12-29T12:34:54;5.25;;;0.57;;
48881;SDS011;57063;51.406;-2.402;2023-12-29T12:37:20;6.28;;;0.63;;
48881;SDS011;57063;51.406;-2.402;2023-12-29T12:39:47;5.47;;;0.85;;
48881;SDS011;57063;51.406;-2.402;2023-12-29T12:42:13;4.78;;;0.52;;
48881;SDS011;57063;51.406;-2.402;2023-12-29T12:44:39;4.50;;;0.75;;
48881;SDS011;57063;51.406;-2.402;2023-12-29T12:47:07;1.88;;;0.77;;
48881;SDS011;57063;51.406;-2.402;2023-12-29T12:49:39;5.57;;;1.70;;
48881;SDS011;57063;51.406;-2.402;2023-12-29T12:52:05;4.40;;;1.73;;
48881;SDS011;57063;51.406;-2.402;2023-12-29T12:54:30;5.13;;;0.98;;
48881;SDS011;57063;51.406;-2.402;2023-12-29T12:56:56;6.22;;;0.73;;
48881;SDS011;57063;51.406;-2.402;2023-12-29T12:59:21;8.55;;;1.52;;
48881;SDS011;57063;51.406;-2.402;2023-12-29T13:01:47;6.53;;;0.50;;
48881;SDS011;57063;51.406;-2.402;2023-12-29T13:04:13;4.95;;;0.60;;
48881;SDS011;57063;51.406;-2.402;2023-12-29T13:06:39;5.18;;;0.85;;
48881;SDS011;57063;51.406;-2.402;2023-12-29T13:09:06;5.50;;;0.85;;
48881;SDS011;57063;51.406;-2.402;2023-12-29T13:11:36;5.35;;;0.60;;
48881;SDS011;57063;51.406;-2.402;2023-12-29T13:14:02;9.38;;;1.23;;
48881;SDS011;57063;51.406;-2.402;2023-12-29T13:16:31;7.30;;;1.13;;
48881;SDS011;57063;51.406;-2.402;2023-12-29T13:18:57;8.93;;;1.00;;
48881;SDS011;57063;51.406;-2.402;2023-12-29T13:21:37;7.50;;;0.93;;
48881;SDS011;57063;51.406;-2.402;2023-12-29T13:24:05;4.95;;;1.00;;
48881;SDS011;57063;51.406;-2.402;2023-12-29T13:26:31;5.40;;;0.85;;
48881;SDS011;57063;51.406;-2.402;2023-12-29T13:28:56;8.13;;;1.23;;
48881;SDS011;57063;51.406;-2.402;2023-12-29T13:31:22;4.25;;;0.82;;
48881;SDS011;57063;51.406;-2.402;2023-12-29T13:33:52;5.43;;;0.80;;
48881;SDS011;57063;51.406;-2.402;2023-12-29T13:36:32;10.73;;;1.75;;
48881;SDS011;57063;51.406;-2.402;2023-12-29T13:41:55;7.93;;;1.10;;
48881;SDS011;57063;51.406;-2.402;2023-12-29T13:44:21;5.15;;;0.70;;
48881;SDS011;57063;51.406;-2.402;2023-12-29T13:46:48;6.45;;;1.35;;
48881;SDS011;57063;51.406;-2.402;2023-12-29T13:49:16;7.15;;;0.90;;
48881;SDS011;57063;51.406;-2.402;2023-12-29T13:51:42;10.38;;;1.27;;
48881;SDS011;57063;51.406;-2.402;2023-12-29T13:54:07;8.52;;;1.10;;
48881;SDS011;57063;51.406;-2.402;2023-12-29T13:56:34;8.25;;;1.35;;
48881;SDS011;57063;51.406;-2.402;2023-12-29T13:58:59;13.10;;;1.15;;
48881;SDS011;57063;51.406;-2.402;2023-12-29T14:01:34;7.18;;;1.95;;
48881;SDS011;57063;51.406;-2.402;2023-12-29T14:04:00;5.88;;;1.00;;
48881;SDS011;57063;51.406;-2.402;2023-12-29T14:07:10;8.18;;;0.98;;
48881;SDS011;57063;51.406;-2.402;2023-12-29T14:09:20;13.55;;;1.70;;
48881;SDS011;57063;51.406;-2.402;2023-12-29T14:11:49;11.00;;;1.75;;
48881;SDS011;57063;51.406;-2.402;2023-12-29T14:14:20;12.82;;;1.67;;
48881;SDS011;57063;51.406;-2.402;2023-12-29T14:16:52;7.70;;;1.05;;
48881;SDS011;57063;51.406;-2.402;2023-12-29T14:19:18;12.13;;;0.85;;
48881;SDS011;57063;51.406;-2.402;2023-12-29T14:21:44;8.07;;;1.45;;
48881;SDS011;57063;51.406;-2.402;2023-12-29T14:24:14;13.45;;;2.22;;
48881;SDS011;57063;51.406;-2.402;2023-12-29T14:26:41;14.10;;;1.42;;
48881;SDS011;57063;51.406;-2.402;2023-12-29T14:29:21;12.57;;;1.47;;
48881;SDS011;57063;51.406;-2.402;2023-12-29T14:31:47;11.07;;;2.58;;
48881;SDS011;57063;51.406;-2.402;2023-12-29T14:34:13;10.35;;;1.38;;
48881;SDS011;57063;51.406;-2.402;2023-12-29T14:36:40;11.00;;;1.10;;
48881;SDS011;57063;51.406;-2.402;2023-12-29T14:39:06;8.35;;;1.30;;
48881;SDS011;57063;51.406;-2.402;2023-12-29T14:41:32;6.85;;;0.90;;
48881;SDS011;57063;51.406;-2.402;2023-12-29T14:43:58;9.50;;;1.40;;